Time;durP1;ratioP1;P1;durP2;ratioP2;P2;SDS_P1;SDS_P2;PMS_P1;PMS_P2;Temp;Humidity;BMP_temperature;BMP_pressure;BME280_temperature;BME280_humidity;BME280_pressure;Samples;Min_cycle;Max_cycle;Signal;HPM_P1;HPM_P2
2021/07/13 00:01:09;;;;;;;15.02;11.00;;;19.70;99.90;;;;;;6067825;23;20163;-69
2021/07/13 00:03:36;;;;;;;14.32;11.85;;;19.70;99.90;;;;;;6067960;23;20197;-69
2021/07/13 00:08:42;;;;;;;14.55;11.45;;;19.60;99.90;;;;;;6148580;23;20215;-74
2021/07/13 00:11:08;;;;;;;16.90;11.50;;;19.60;99.90;;;;;;6154357;23;20617;-75
2021/07/13 00:13:35;;;;;;;14.93;10.75;;;19.60;99.90;;;;;;6155416;23;20500;-74
2021/07/13 00:16:04;;;;;;;15.05;10.98;;;19.50;99.90;;;;;;6156023;23;20196;-75
2021/07/13 00:18:31;;;;;;;15.43;11.07;;;19.50;99.90;;;;;;6155514;23;20165;-74
2021/07/13 00:20:58;;;;;;;12.55;11.23;;;19.50;99.90;;;;;;6155212;23;20252;-74
2021/07/13 00:23:24;;;;;;;12.98;11.27;;;19.60;99.90;;;;;;6155504;23;20191;-75
2021/07/13 00:25:51;;;;;;;16.33;11.73;;;19.40;99.90;;;;;;6155937;23;20263;-74
2021/07/13 00:28:18;;;;;;;11.73;9.88;;;19.40;99.90;;;;;;6155811;23;20172;-74
2021/07/13 00:30:45;;;;;;;17.00;10.82;;;19.00;99.90;;;;;;6154859;23;20161;-75
2021/07/13 00:33:14;;;;;;;14.68;10.85;;;18.70;99.90;;;;;;6156207;23;20216;-75
2021/07/13 00:35:41;;;;;;;23.38;11.00;;;18.60;99.90;;;;;;6155088;23;20169;-75
2021/07/13 00:38:08;;;;;;;13.70;10.70;;;18.60;99.90;;;;;;6155875;23;20167;-74
2021/07/13 00:40:35;;;;;;;14.32;10.77;;;18.70;99.90;;;;;;6154988;23;20161;-75
2021/07/13 00:43:02;;;;;;;13.35;11.20;;;18.80;99.90;;;;;;6156043;23;20264;-74
2021/07/13 00:45:29;;;;;;;16.60;11.25;;;18.80;99.90;;;;;;6155833;23;20167;-74
2021/07/13 00:47:56;;;;;;;21.50;11.68;;;18.70;99.90;;;;;;6155397;23;20215;-74
2021/07/13 00:50:27;;;;;;;21.77;11.57;;;18.70;99.90;;;;;;6155117;23;20489;-75
2021/07/13 00:52:57;;;;;;;13.77;11.65;;;18.70;99.90;;;;;;6155402;23;20161;-74
2021/07/13 00:55:24;;;;;;;13.82;11.95;;;18.80;99.90;;;;;;6156342;23;20579;-74
2021/07/13 00:57:51;;;;;;;14.48;11.43;;;18.90;99.90;;;;;;6155690;23;20164;-74
2021/07/13 01:00:21;;;;;;;15.63;11.93;;;19.00;99.90;;;;;;6154893;23;20244;-75
2021/07/13 01:02:50;;;;;;;16.38;12.55;;;19.00;99.90;;;;;;6155103;23;20219;-74
2021/07/13 01:05:19;;;;;;;13.23;11.55;;;19.00;99.90;;;;;;6155471;23;20481;-75
2021/07/13 01:07:55;;;;;;;13.38;11.98;;;19.10;99.90;;;;;;6155143;23;20184;-75
2021/07/13 01:10:31;;;;;;;13.93;11.98;;;19.10;99.90;;;;;;6154666;23;20167;-74
2021/07/13 01:13:17;;;;;;;13.77;11.73;;;19.00;99.90;;;;;;6155790;23;20246;-75
2021/07/13 01:15:51;;;;;;;16.17;11.85;;;19.00;99.90;;;;;;6155685;23;20161;-74
2021/07/13 01:18:21;;;;;;;13.43;11.35;;;19.00;99.90;;;;;;6155332;23;20164;-75
2021/07/13 01:21:22;;;;;;;12.45;10.82;;;18.90;99.90;;;;;;6154545;23;20175;-75
2021/07/13 01:24:07;;;;;;;15.07;11.52;;;18.90;99.90;;;;;;6139984;23;20532;-75
2021/07/13 01:26:40;;;;;;;13.05;11.02;;;18.80;99.90;;;;;;6155481;23;20192;-74
2021/07/13 01:29:11;;;;;;;12.13;10.75;;;18.80;99.90;;;;;;6155413;23;20484;-75
2021/07/13 01:31:40;;;;;;;13.88;11.43;;;18.70;99.90;;;;;;6154609;23;20591;-75
2021/07/13 01:34:12;;;;;;;14.90;11.45;;;18.70;99.90;;;;;;6155487;23;20172;-75
2021/07/13 01:36:44;;;;;;;13.73;11.10;;;18.60;99.90;;;;;;6155019;23;20165;-74
2021/07/13 01:39:13;;;;;;;18.05;11.70;;;18.60;99.90;;;;;;6155077;23;20165;-75
2021/07/13 01:41:41;;;;;;;12.18;10.60;;;18.60;99.90;;;;;;6154738;23;20171;-74
2021/07/13 01:44:11;;;;;;;11.18;9.82;;;18.60;99.90;;;;;;6154876;23;20181;-75
2021/07/13 01:46:39;;;;;;;13.05;10.35;;;18.30;99.90;;;;;;6155581;23;20168;-74
2021/07/13 01:49:07;;;;;;;13.82;11.43;;;18.20;99.90;;;;;;6154889;23;20302;-73
2021/07/13 01:51:35;;;;;;;15.85;12.13;;;17.80;99.90;;;;;;6155036;23;20599;-73
2021/07/13 01:54:06;;;;;;;15.90;12.57;;;17.70;99.90;;;;;;6154955;23;20630;-73
2021/07/13 01:56:33;;;;;;;17.38;12.23;;;17.90;99.90;;;;;;6154806;23;20225;-73
2021/07/13 01:59:01;;;;;;;14.45;11.55;;;17.90;99.90;;;;;;6155242;23;20167;-73
2021/07/13 02:01:31;;;;;;;17.08;12.68;;;17.80;99.90;;;;;;6154776;23;20160;-73
2021/07/13 02:03:59;;;;;;;18.77;13.73;;;17.80;99.90;;;;;;6153847;23;20206;-73
2021/07/13 02:06:26;;;;;;;15.57;13.93;;;17.80;99.90;;;;;;6154721;23;20172;-73
2021/07/13 02:08:55;;;;;;;15.07;12.18;;;17.80;99.90;;;;;;6154405;23;20191;-72
2021/07/13 02:11:24;;;;;;;16.98;12.23;;;17.90;99.90;;;;;;6154750;23;20617;-73
2021/07/13 02:13:51;;;;;;;19.80;13.48;;;18.00;99.90;;;;;;6154554;23;20157;-73
2021/07/13 02:16:19;;;;;;;18.75;13.27;;;17.90;99.90;;;;;;6154783;23;20175;-73
2021/07/13 02:18:47;;;;;;;20.05;12.65;;;17.60;99.90;;;;;;6155497;23;20575;-73
2021/07/13 02:21:15;;;;;;;16.45;12.63;;;17.90;99.90;;;;;;6155036;23;20161;-73
2021/07/13 02:23:43;;;;;;;17.58;12.27;;;17.90;99.90;;;;;;6153669;23;20191;-73
2021/07/13 02:26:12;;;;;;;12.60;11.30;;;17.80;99.90;;;;;;6154900;23;20172;-73
2021/07/13 02:28:44;;;;;;;15.60;11.73;;;17.70;99.90;;;;;;6152910;23;20168;-73
2021/07/13 02:31:15;;;;;;;15.52;12.00;;;17.60;99.90;;;;;;6154749;23;20160;-73
2021/07/13 02:33:47;;;;;;;17.42;12.45;;;17.60;99.90;;;;;;6154927;23;20167;-73
2021/07/13 02:36:18;;;;;;;17.58;12.23;;;17.50;99.90;;;;;;6155126;23;20643;-73
2021/07/13 02:38:46;;;;;;;16.13;11.68;;;17.60;99.90;;;;;;6154697;23;20164;-73
2021/07/13 02:41:14;;;;;;;17.33;12.90;;;17.70;99.90;;;;;;6153809;23;20165;-73
2021/07/13 02:43:42;;;;;;;15.43;12.60;;;17.80;99.90;;;;;;6154534;23;20185;-73
2021/07/13 02:46:09;;;;;;;14.98;12.73;;;17.80;99.90;;;;;;6154108;23;20165;-73
2021/07/13 02:48:37;;;;;;;19.20;13.52;;;17.80;99.90;;;;;;6153706;23;20492;-73
2021/07/13 02:51:05;;;;;;;18.23;12.57;;;17.80;99.90;;;;;;6152774;23;20247;-73
2021/07/13 02:53:36;;;;;;;15.95;11.70;;;17.70;99.90;;;;;;6153655;23;20161;-73
2021/07/13 02:56:06;;;;;;;13.57;10.60;;;17.80;99.90;;;;;;6154290;23;20167;-73
2021/07/13 02:58:33;;;;;;;12.18;9.90;;;17.60;99.90;;;;;;6154375;23;20251;-73
2021/07/13 03:01:01;;;;;;;12.05;10.85;;;17.10;99.90;;;;;;6154803;23;20245;-73
2021/07/13 03:03:28;;;;;;;12.57;9.48;;;16.90;99.90;;;;;;6154112;23;20195;-73
2021/07/13 03:05:58;;;;;;;11.73;10.48;;;16.90;99.90;;;;;;6155056;23;20160;-73
2021/07/13 03:08:26;;;;;;;14.38;12.30;;;17.10;99.90;;;;;;6153796;23;20184;-73
2021/07/13 03:10:56;;;;;;;16.27;12.82;;;17.30;99.90;;;;;;6154608;23;20171;-73
2021/07/13 03:13:24;;;;;;;16.55;12.65;;;17.50;99.90;;;;;;6153996;23;20164;-73
2021/07/13 03:15:51;;;;;;;14.35;12.85;;;17.80;99.90;;;;;;6154944;23;20160;-73
2021/07/13 03:18:19;;;;;;;15.98;13.50;;;17.80;99.90;;;;;;6154287;23;20252;-73
2021/07/13 03:20:47;;;;;;;14.75;12.82;;;17.90;99.90;;;;;;6154645;23;20592;-73
2021/07/13 03:23:16;;;;;;;18.63;11.60;;;17.90;99.90;;;;;;6154524;23;20175;-73
2021/07/13 03:25:43;;;;;;;13.18;9.70;;;17.60;99.90;;;;;;6153493;23;20501;-73
2021/07/13 03:28:14;;;;;;;13.57;9.55;;;17.00;99.90;;;;;;6154601;23;20164;-72
2021/07/13 03:30:42;;;;;;;10.73;8.75;;;16.90;99.90;;;;;;6154019;23;20167;-73
2021/07/13 03:33:11;;;;;;;11.63;9.45;;;17.00;99.90;;;;;;6154966;23;20239;-73
2021/07/13 03:35:39;;;;;;;10.48;9.38;;;17.10;99.90;;;;;;6154522;23;20156;-73
2021/07/13 03:38:07;;;;;;;12.80;10.82;;;17.20;99.90;;;;;;6154936;23;20160;-73
2021/07/13 03:40:34;;;;;;;13.60;10.18;;;17.40;99.90;;;;;;6154790;23;20167;-72
2021/07/13 03:43:01;;;;;;;13.70;10.57;;;17.50;99.90;;;;;;6154778;23;20160;-73
2021/07/13 03:45:29;;;;;;;16.98;12.15;;;17.50;99.90;;;;;;6154590;23;20184;-73
2021/07/13 03:47:58;;;;;;;19.23;14.10;;;17.70;99.90;;;;;;6154823;23;20165;-73
2021/07/13 03:50:28;;;;;;;17.73;14.05;;;17.70;99.90;;;;;;6154358;23;20165;-73
2021/07/13 03:52:55;;;;;;;22.23;15.00;;;17.90;99.90;;;;;;6154627;23;20161;-73
2021/07/13 03:55:22;;;;;;;15.45;12.80;;;18.00;99.90;;;;;;6154988;23;20243;-73
2021/07/13 03:57:52;;;;;;;16.83;12.52;;;18.00;99.90;;;;;;6154664;23;20161;-73
2021/07/13 04:00:21;;;;;;;17.08;12.38;;;18.10;99.90;;;;;;6153915;23;20495;-73
2021/07/13 04:02:49;;;;;;;19.38;13.23;;;18.00;99.90;;;;;;6154462;23;20160;-73
2021/07/13 04:05:16;;;;;;;16.88;13.07;;;18.00;99.90;;;;;;6154141;23;20194;-73
2021/07/13 04:07:43;;;;;;;19.95;13.23;;;18.20;99.90;;;;;;6154221;23;20184;-73
2021/07/13 04:10:13;;;;;;;19.88;13.80;;;18.40;99.90;;;;;;6154130;23;20164;-75
2021/07/13 04:12:39;;;;;;;16.67;14.68;;;18.90;99.90;;;;;;6153300;23;20184;-73
2021/07/13 04:15:08;;;;;;;20.88;12.82;;;19.20;99.90;;;;;;6154267;23;20536;-73
2021/07/13 04:17:35;;;;;;;17.17;13.05;;;18.90;99.90;;;;;;6153657;23;20161;-73
2021/07/13 04:20:03;;;;;;;16.20;11.90;;;19.20;99.90;;;;;;6154157;23;20168;-73
2021/07/13 04:22:30;;;;;;;17.02;13.23;;;19.70;99.90;;;;;;6153410;23;20171;-73
2021/07/13 04:24:57;;;;;;;17.90;12.15;;;19.90;99.90;;;;;;6153571;23;20184;-73
2021/07/13 04:27:23;;;;;;;15.10;11.90;;;20.20;99.90;;;;;;6153830;23;20564;-73
2021/07/13 04:29:51;;;;;;;14.05;12.15;;;20.50;99.90;;;;;;6154483;23;20164;-73
2021/07/13 04:32:18;;;;;;;14.02;12.15;;;20.60;99.90;;;;;;6153437;23;20161;-73
2021/07/13 04:34:45;;;;;;;14.88;11.95;;;20.40;99.90;;;;;;6154238;23;20540;-74
2021/07/13 04:37:13;;;;;;;15.25;12.65;;;20.20;99.90;;;;;;6153996;23;20161;-73
2021/07/13 04:39:40;;;;;;;18.40;12.60;;;19.90;99.90;;;;;;6155411;23;20172;-73
2021/07/13 04:42:06;;;;;;;14.10;11.88;;;20.00;99.90;;;;;;6156069;23;20191;-73
2021/07/13 04:44:33;;;;;;;14.60;12.88;;;20.00;99.90;;;;;;6155487;23;20207;-73
2021/07/13 04:47:00;;;;;;;17.08;12.52;;;19.80;99.90;;;;;;6155465;23;20251;-73
2021/07/13 04:49:31;;;;;;;17.45;12.43;;;19.70;99.90;;;;;;6155542;23;20486;-73
2021/07/13 04:51:58;;;;;;;15.63;13.43;;;19.80;99.90;;;;;;6155458;23;20513;-73
2021/07/13 04:54:30;;;;;;;16.38;13.13;;;20.00;99.90;;;;;;6156251;23;20584;-73
2021/07/13 04:56:57;;;;;;;14.57;12.57;;;20.10;99.90;;;;;;6155937;23;20260;-73
2021/07/13 04:59:24;;;;;;;17.17;11.85;;;20.00;99.90;;;;;;6155239;23;20175;-72
2021/07/13 05:01:51;;;;;;;16.33;12.40;;;20.10;99.90;;;;;;6153066;23;20168;-72
2021/07/13 05:04:18;;;;;;;14.25;11.90;;;20.00;99.90;;;;;;6154104;23;20185;-72
2021/07/13 05:06:45;;;;;;;16.42;12.95;;;20.20;99.90;;;;;;6155026;23;20196;-72
2021/07/13 05:09:12;;;;;;;16.58;12.75;;;20.20;99.90;;;;;;6155555;23;20580;-75
2021/07/13 05:11:40;;;;;;;14.10;11.88;;;20.40;99.90;;;;;;6155121;23;20215;-71
2021/07/13 05:14:07;;;;;;;17.08;12.27;;;20.60;99.90;;;;;;6155299;23;20161;-71
2021/07/13 05:16:33;;;;;;;15.30;12.00;;;20.90;99.90;;;;;;6155213;23;20183;-72
2021/07/13 05:19:01;;;;;;;14.45;12.50;;;20.90;99.90;;;;;;6155304;23;20247;-72
2021/07/13 05:21:28;;;;;;;15.95;11.95;;;20.60;99.90;;;;;;6155064;23;20161;-72
2021/07/13 05:23:55;;;;;;;14.05;11.77;;;20.50;99.90;;;;;;6155006;23;20160;-72
2021/07/13 05:26:21;;;;;;;14.98;12.32;;;20.40;99.90;;;;;;6155169;23;20184;-71
2021/07/13 05:28:51;;;;;;;18.65;12.13;;;20.30;99.90;;;;;;6154374;23;20160;-72
2021/07/13 05:31:18;;;;;;;17.58;11.93;;;20.30;99.90;;;;;;6154997;23;20167;-71
2021/07/13 05:33:45;;;;;;;15.38;12.25;;;20.20;99.90;;;;;;6155254;23;20192;-72
2021/07/13 05:36:11;;;;;;;15.25;11.75;;;20.30;99.90;;;;;;6155359;23;20156;-72
2021/07/13 05:38:38;;;;;;;16.77;12.30;;;20.40;99.90;;;;;;6155256;23;20160;-72
2021/07/13 05:41:06;;;;;;;16.15;12.57;;;20.40;99.90;;;;;;6153733;23;20167;-72
2021/07/13 05:43:33;;;;;;;14.50;11.57;;;20.40;99.90;;;;;;6155743;23;20184;-72
2021/07/13 05:46:03;;;;;;;16.90;11.82;;;20.50;99.90;;;;;;6154192;23;20646;-72
2021/07/13 05:48:29;;;;;;;17.20;11.75;;;20.60;99.90;;;;;;6155407;23;20565;-71
2021/07/13 05:50:56;;;;;;;18.23;13.40;;;20.50;99.90;;;;;;6154532;23;20161;-71
2021/07/13 05:53:23;;;;;;;20.10;12.75;;;20.50;99.90;;;;;;6154915;23;20167;-72
2021/07/13 05:55:50;;;;;;;16.52;12.25;;;20.50;99.90;;;;;;6154666;23;20587;-71
2021/07/13 05:58:20;;;;;;;17.77;13.05;;;20.60;99.90;;;;;;6154712;23;20165;-71
2021/07/13 06:00:47;;;;;;;14.93;13.00;;;20.60;99.90;;;;;;6153900;23;20165;-71
2021/07/13 06:03:15;;;;;;;18.52;14.13;;;20.50;99.90;;;;;;6155484;23;20160;-71
2021/07/13 06:05:42;;;;;;;16.92;13.32;;;20.60;99.90;;;;;;6154961;23;20185;-72
2021/07/13 06:08:09;;;;;;;17.48;14.38;;;20.60;99.90;;;;;;6169505;23;20210;-70
2021/07/13 06:10:36;;;;;;;15.15;12.65;;;20.70;99.90;;;;;;6184021;23;20160;-70
2021/07/13 06:13:03;;;;;;;20.17;12.98;;;20.80;99.90;;;;;;6184385;23;20167;-70
2021/07/13 06:15:30;;;;;;;14.75;12.38;;;20.90;99.90;;;;;;6184606;23;20156;-69
2021/07/13 06:17:57;;;;;;;18.73;14.18;;;21.00;99.90;;;;;;6185112;23;20182;-70
2021/07/13 06:20:25;;;;;;;22.00;17.23;;;21.00;99.90;;;;;;6183276;23;20362;-69
2021/07/13 06:22:52;;;;;;;21.27;18.98;;;20.90;99.90;;;;;;6184788;23;20603;-70
2021/07/13 06:25:19;;;;;;;25.13;20.67;;;20.90;99.90;;;;;;6184116;23;20184;-69
2021/07/13 06:27:45;;;;;;;23.42;20.70;;;20.90;99.90;;;;;;6184256;23;20247;-69
2021/07/13 06:30:13;;;;;;;20.77;16.60;;;20.90;99.90;;;;;;6183444;23;20160;-69
2021/07/13 06:32:40;;;;;;;20.80;15.45;;;20.90;99.90;;;;;;6184587;23;20166;-69
2021/07/13 06:35:08;;;;;;;19.33;14.57;;;20.90;99.90;;;;;;6183952;23;20155;-69
2021/07/13 06:37:36;;;;;;;17.25;13.45;;;20.80;99.90;;;;;;6183977;23;20164;-69
2021/07/13 06:40:04;;;;;;;18.20;15.15;;;20.90;99.90;;;;;;6183757;23;20167;-69
2021/07/13 06:42:31;;;;;;;19.30;13.63;;;21.00;99.90;;;;;;6183782;23;20243;-70
2021/07/13 06:44:57;;;;;;;17.63;13.35;;;21.00;99.90;;;;;;6184391;23;20263;-70
2021/07/13 06:47:24;;;;;;;17.17;13.40;;;21.00;99.90;;;;;;6184231;23;20356;-70
2021/07/13 06:49:51;;;;;;;17.85;13.43;;;21.00;99.90;;;;;;6183921;23;20160;-69
2021/07/13 06:52:18;;;;;;;18.42;13.07;;;21.20;99.90;;;;;;6184428;23;20454;-69
2021/07/13 06:54:46;;;;;;;17.08;12.65;;;21.10;99.90;;;;;;6183988;23;20168;-69
2021/07/13 06:57:13;;;;;;;14.40;12.52;;;21.30;99.90;;;;;;6183912;23;20160;-69
2021/07/13 06:59:40;;;;;;;15.43;12.25;;;21.40;99.90;;;;;;6182862;23;20160;-70
2021/07/13 07:02:07;;;;;;;14.50;11.88;;;21.50;99.90;;;;;;6184257;23;20496;-69
2021/07/13 07:04:33;;;;;;;14.98;12.38;;;21.50;99.90;;;;;;6183868;23;20166;-69
2021/07/13 07:07:00;;;;;;;12.98;10.95;;;21.50;99.90;;;;;;6183838;23;20163;-69
2021/07/13 07:09:27;;;;;;;11.07;9.98;;;21.40;99.90;;;;;;6184035;23;20464;-69
2021/07/13 07:11:55;;;;;;;11.88;9.77;;;21.40;99.90;;;;;;6183485;23;20160;-69
2021/07/13 07:14:22;;;;;;;14.00;10.13;;;21.50;99.90;;;;;;6184063;23;20617;-69
2021/07/13 07:16:49;;;;;;;13.60;10.52;;;21.50;99.90;;;;;;6183716;23;20179;-70
2021/07/13 07:19:15;;;;;;;11.30;10.05;;;21.60;99.90;;;;;;6183789;23;20167;-69
2021/07/13 07:21:42;;;;;;;10.80;9.38;;;21.70;99.90;;;;;;6183041;23;20602;-70
2021/07/13 07:24:09;;;;;;;12.48;9.73;;;21.70;99.90;;;;;;6184261;23;20160;-70
2021/07/13 07:26:36;;;;;;;8.93;8.02;;;21.80;99.90;;;;;;6183456;23;20685;-69
2021/07/13 07:29:04;;;;;;;12.60;9.38;;;21.90;99.90;;;;;;6184113;23;20170;-69
2021/07/13 07:31:31;;;;;;;10.13;9.07;;;21.90;99.90;;;;;;6183377;23;20613;-69
2021/07/13 07:33:58;;;;;;;11.27;9.85;;;22.00;99.90;;;;;;6183634;23;20160;-69
2021/07/13 07:36:26;;;;;;;11.25;9.25;;;22.00;99.90;;;;;;6183312;23;20171;-69
2021/07/13 07:38:53;;;;;;;12.20;9.43;;;22.00;99.90;;;;;;6183812;23;20488;-69
2021/07/13 07:41:20;;;;;;;11.90;9.60;;;22.20;99.90;;;;;;6183857;23;20182;-70
2021/07/13 07:43:48;;;;;;;13.13;9.07;;;22.20;99.90;;;;;;6183477;23;20166;-70
2021/07/13 07:46:16;;;;;;;10.88;9.07;;;22.50;99.90;;;;;;6183248;23;20184;-70
2021/07/13 07:48:43;;;;;;;9.63;8.23;;;22.50;99.90;;;;;;6183687;23;20603;-69
2021/07/13 07:51:10;;;;;;;12.52;9.02;;;22.50;99.90;;;;;;6183364;23;20190;-69
2021/07/13 07:53:37;;;;;;;11.57;8.20;;;22.60;99.90;;;;;;6183754;23;20160;-69
2021/07/13 07:56:04;;;;;;;11.45;7.30;;;22.70;99.90;;;;;;6183770;23;20207;-69
2021/07/13 07:58:31;;;;;;;7.97;6.30;;;22.70;99.90;;;;;;6183681;23;20171;-70
2021/07/13 08:00:58;;;;;;;8.02;6.75;;;23.00;99.90;;;;;;6183163;23;20160;-69
2021/07/13 08:03:26;;;;;;;10.25;6.68;;;23.20;99.90;;;;;;6183585;23;20160;-69
2021/07/13 08:05:55;;;;;;;11.98;6.68;;;23.40;99.90;;;;;;6183718;23;20192;-69
2021/07/13 08:08:22;;;;;;;10.73;5.80;;;23.20;99.90;;;;;;6183513;23;20211;-69
2021/07/13 08:10:49;;;;;;;9.73;6.60;;;23.50;99.90;;;;;;6182199;23;20480;-69
2021/07/13 08:13:15;;;;;;;10.30;4.95;;;23.50;99.90;;;;;;6184545;23;20160;-69
2021/07/13 08:15:42;;;;;;;8.70;5.72;;;23.70;99.90;;;;;;6185344;23;20488;-69
2021/07/13 08:18:09;;;;;;;9.82;6.18;;;23.60;99.90;;;;;;6184944;23;20473;-69
2021/07/13 08:20:38;;;;;;;7.90;5.40;;;23.70;99.90;;;;;;6184269;23;20166;-70
2021/07/13 08:23:04;;;;;;;7.70;5.47;;;24.00;99.90;;;;;;6184967;23;20170;-70
2021/07/13 08:25:31;;;;;;;7.65;4.88;;;24.00;99.90;;;;;;6183811;23;20184;-69
2021/07/13 08:27:58;;;;;;;9.23;6.38;;;24.00;99.90;;;;;;6184307;23;20164;-69
2021/07/13 08:30:27;;;;;;;8.45;5.97;;;24.10;99.90;;;;;;6184233;23;20168;-69
2021/07/13 08:32:55;;;;;;;8.57;5.95;;;24.00;99.90;;;;;;6184533;23;20218;-70
2021/07/13 08:35:21;;;;;;;12.32;6.25;;;24.00;99.90;;;;;;6184778;23;20195;-70
2021/07/13 08:37:51;;;;;;;14.95;8.13;;;24.30;99.90;;;;;;6184757;23;20167;-70
2021/07/13 08:40:19;;;;;;;15.35;8.63;;;24.30;99.90;;;;;;6184111;23;20168;-68
2021/07/13 08:42:46;;;;;;;16.13;8.65;;;24.30;99.90;;;;;;6184354;23;20531;-69
2021/07/13 08:45:15;;;;;;;17.30;9.63;;;24.50;99.90;;;;;;6183984;23;20163;-68
2021/07/13 08:47:43;;;;;;;14.20;8.82;;;24.50;99.90;;;;;;6180619;23;20235;-68
2021/07/13 08:50:12;;;;;;;12.48;8.27;;;24.50;99.90;;;;;;6182692;23;20164;-69
2021/07/13 08:52:39;;;;;;;15.13;8.38;;;24.40;99.90;;;;;;6176279;23;20190;-69
2021/07/13 08:55:09;;;;;;;13.40;7.85;;;24.80;99.90;;;;;;6175605;23;20179;-69
2021/07/13 08:57:38;;;;;;;11.30;6.68;;;25.00;99.90;;;;;;6175346;23;20186;-69
2021/07/13 09:00:07;;;;;;;10.85;6.82;;;25.30;99.90;;;;;;6176634;23;20515;-69
2021/07/13 09:02:34;;;;;;;9.57;6.20;;;25.40;99.90;;;;;;6176431;23;20186;-68
2021/07/13 09:05:00;;;;;;;9.02;5.80;;;25.50;99.90;;;;;;6175941;23;20190;-68
2021/07/13 09:07:29;;;;;;;11.50;5.93;;;25.50;99.90;;;;;;6175869;23;20363;-69
2021/07/13 09:10:03;;;;;;;7.90;5.05;;;25.90;99.90;;;;;;6176052;23;20697;-69
2021/07/13 09:12:32;;;;;;;8.85;5.03;;;26.10;99.90;;;;;;6175785;23;20186;-69
2021/07/13 09:15:01;;;;;;;8.80;5.95;;;26.10;99.90;;;;;;6176301;23;20180;-69
2021/07/13 09:17:36;;;;;;;7.85;5.60;;;26.30;99.90;;;;;;6175786;23;20176;-68
2021/07/13 09:20:23;;;;;;;7.68;5.90;;;26.40;99.90;;;;;;6175590;23;20179;-69
2021/07/13 09:22:56;;;;;;;8.77;6.43;;;26.40;99.90;;;;;;6175274;23;20194;-69
2021/07/13 09:25:33;;;;;;;9.80;5.93;;;26.10;99.90;;;;;;6172207;23;20186;-68
2021/07/13 09:28:15;;;;;;;7.95;5.32;;;26.50;99.90;;;;;;6176375;23;20186;-69
2021/07/13 09:30:44;;;;;;;7.53;5.20;;;26.60;99.90;;;;;;6175930;23;20181;-69
2021/07/13 09:33:16;;;;;;;6.55;5.18;;;26.90;99.90;;;;;;6175340;23;20180;-69
2021/07/13 09:35:58;;;;;;;6.82;4.93;;;27.50;99.90;;;;;;6175710;23;20658;-69
2021/07/13 09:38:25;;;;;;;6.95;5.00;;;27.50;99.90;;;;;;6175340;23;20180;-69
2021/07/13 09:41:04;;;;;;;11.93;5.47;;;28.00;99.90;;;;;;6175304;23;20198;-68
2021/07/13 09:43:43;;;;;;;9.32;5.43;;;27.70;99.90;;;;;;6175199;23;20526;-69
2021/07/13 09:46:30;;;;;;;6.32;5.72;;;28.00;99.90;;;;;;6175607;23;20195;-69
2021/07/13 09:49:16;;;;;;;6.95;5.50;;;27.60;99.90;;;;;;6173983;23;20630;-69
2021/07/13 09:51:45;;;;;;;5.68;5.18;;;27.30;99.90;;;;;;6173971;23;20214;-69
2021/07/13 09:54:36;;;;;;;6.20;5.60;;;27.20;99.90;;;;;;6175087;23;20531;-69
2021/07/13 09:57:05;;;;;;;6.07;5.40;;;27.20;99.90;;;;;;6175072;23;20176;-68
2021/07/13 09:59:33;;;;;;;6.28;5.57;;;27.10;99.90;;;;;;6174215;23;20180;-69
2021/07/13 10:02:06;;;;;;;7.93;5.70;;;26.60;99.90;;;;;;6174092;23;20501;-69
2021/07/13 10:04:34;;;;;;;6.63;5.50;;;26.40;99.90;;;;;;6174792;23;20722;-69
2021/07/13 10:07:05;;;;;;;8.60;6.15;;;26.40;99.90;;;;;;6176143;23;20206;-69
2021/07/13 10:09:36;;;;;;;9.65;6.88;;;26.50;99.90;;;;;;6172208;23;20184;-69
2021/07/13 10:12:09;;;;;;;9.13;5.68;;;26.40;99.90;;;;;;6171686;23;20262;-69
2021/07/13 10:14:38;;;;;;;9.00;5.80;;;26.50;99.90;;;;;;6175275;23;20179;-68
2021/07/13 10:17:07;;;;;;;6.72;6.07;;;26.60;99.90;;;;;;6174557;23;20184;-69
2021/07/13 10:19:35;;;;;;;7.07;6.07;;;26.90;99.90;;;;;;6174749;23;20696;-70
2021/07/13 10:22:04;;;;;;;6.82;5.10;;;27.20;99.90;;;;;;6175625;23;20184;-69
2021/07/13 10:24:32;;;;;;;6.55;5.43;;;27.30;99.90;;;;;;6175431;23;20186;-69
2021/07/13 10:27:00;;;;;;;5.82;5.20;;;27.50;99.90;;;;;;6175061;23;20514;-69
2021/07/13 10:29:46;;;;;;;5.93;5.32;;;27.90;99.90;;;;;;6174745;23;20210;-68
2021/07/13 10:32:41;;;;;;;6.57;5.50;;;27.90;99.90;;;;;;6174607;23;20634;-69
2021/07/13 10:35:23;;;;;;;7.30;5.20;;;28.10;99.90;;;;;;6175587;23;20187;-69
2021/07/13 10:37:50;;;;;;;9.43;5.15;;;28.20;99.90;;;;;;6175070;23;20191;-69
2021/07/13 10:40:35;;;;;;;6.28;5.68;;;28.10;99.90;;;;;;6174689;23;20264;-69
2021/07/13 10:43:03;;;;;;;5.40;4.90;;;28.20;99.90;;;;;;6178558;23;20183;-69
2021/07/13 10:45:33;;;;;;;5.80;5.20;;;28.70;99.90;;;;;;6178954;23;20183;-69
2021/07/13 10:48:19;;;;;;;6.32;5.18;;;28.60;99.90;;;;;;6172815;23;20757;-69
2021/07/13 10:50:52;;;;;;;6.50;5.80;;;28.70;99.90;;;;;;6174535;23;20230;-69
2021/07/13 10:53:32;;;;;;;6.55;5.60;;;28.20;99.90;;;;;;6176090;23;20282;-69
2021/07/13 10:56:01;;;;;;;6.95;5.60;;;28.20;99.90;;;;;;6176736;23;20186;-69
2021/07/13 10:58:49;;;;;;;9.02;6.13;;;28.20;99.90;;;;;;6178605;23;20180;-69
2021/07/13 11:01:21;;;;;;;6.05;5.55;;;28.60;99.90;;;;;;6179103;23;20488;-68
2021/07/13 11:04:10;;;;;;;7.35;5.93;;;28.80;99.90;;;;;;6179940;23;20234;-69
2021/07/13 11:07:01;;;;;;;7.65;5.88;;;29.10;99.90;;;;;;6178703;23;20199;-69
2021/07/13 11:09:38;;;;;;;8.07;6.30;;;28.70;99.90;;;;;;6127816;23;20264;-69
2021/07/13 11:12:10;;;;;;;7.15;6.43;;;28.40;99.90;;;;;;6150863;23;20664;-69
2021/07/13 11:14:57;;;;;;;6.32;5.60;;;28.30;99.90;;;;;;6150505;23;20657;-68
2021/07/13 11:17:27;;;;;;;6.72;6.13;;;27.90;99.90;;;;;;6152286;23;20208;-69
2021/07/13 11:20:10;;;;;;;7.97;6.72;;;28.00;99.90;;;;;;6154621;23;20592;-68
2021/07/13 11:22:42;;;;;;;7.10;6.20;;;27.90;99.90;;;;;;6154934;23;20168;-69
2021/07/13 11:25:22;;;;;;;6.68;6.00;;;27.80;99.90;;;;;;6154806;23;20583;-69
2021/07/13 11:28:00;;;;;;;6.70;6.00;;;27.70;99.90;;;;;;6154195;23;20639;-69
2021/07/13 11:30:27;;;;;;;6.68;6.00;;;28.10;99.90;;;;;;6128234;23;20164;-69
2021/07/13 11:33:02;;;;;;;6.63;6.03;;;28.00;99.90;;;;;;6153466;23;20160;-69
2021/07/13 11:35:29;;;;;;;8.80;5.93;;;27.50;99.90;;;;;;6153821;23;20609;-69
2021/07/13 11:37:57;;;;;;;8.05;6.90;;;27.30;99.90;;;;;;6154134;23;20172;-69
2021/07/13 11:40:24;;;;;;;6.97;6.13;;;27.20;99.90;;;;;;6154524;23;20638;-69
2021/07/13 11:42:57;;;;;;;9.98;6.50;;;26.90;99.90;;;;;;6154682;23;20445;-68
2021/07/13 11:45:24;;;;;;;7.78;7.07;;;27.10;99.90;;;;;;6150047;23;20184;-69
2021/07/13 11:47:51;;;;;;;9.80;6.63;;;27.00;99.90;;;;;;6152308;23;20200;-68
2021/07/13 11:50:19;;;;;;;10.15;7.00;;;26.90;99.90;;;;;;6152150;23;20184;-69
2021/07/13 11:52:46;;;;;;;10.60;6.60;;;26.90;99.90;;;;;;6151353;23;20495;-71
2021/07/13 11:55:13;;;;;;;7.00;6.30;;;26.90;99.90;;;;;;6152003;23;20259;-71
2021/07/13 11:57:49;;;;;;;8.32;6.85;;;26.90;99.90;;;;;;6152984;23;20264;-71
2021/07/13 12:00:27;;;;;;;6.70;6.00;;;26.90;99.90;;;;;;6152078;23;20187;-71
2021/07/13 12:02:55;;;;;;;6.65;6.05;;;26.90;99.90;;;;;;6152691;23;20187;-71
2021/07/13 12:05:23;;;;;;;7.88;6.30;;;26.80;99.90;;;;;;6151699;23;20646;-71
2021/07/13 12:10:25;;;;;;;7.05;6.35;;;26.90;99.90;;;;;;6149403;23;20219;-74
2021/07/13 12:13:01;;;;;;;7.25;6.55;;;26.80;99.90;;;;;;6150910;23;20494;-76
2021/07/13 12:15:27;;;;;;;7.38;6.60;;;26.90;99.90;;;;;;6150321;23;20184;-74
2021/07/13 12:17:54;;;;;;;10.45;6.65;;;26.70;99.90;;;;;;6142412;23;20177;-73
2021/07/13 12:20:23;;;;;;;7.07;6.38;;;26.60;99.90;;;;;;6146286;23;20518;-74
2021/07/13 12:22:56;;;;;;;7.75;5.75;;;26.50;99.90;;;;;;6147310;23;20274;-76
2021/07/13 12:25:23;;;;;;;8.13;6.18;;;26.40;99.90;;;;;;6144158;23;20184;-74
2021/07/13 12:27:50;;;;;;;8.27;6.10;;;26.40;99.90;;;;;;6147467;23;20231;-74
2021/07/13 12:30:17;;;;;;;8.05;6.60;;;26.50;99.90;;;;;;6148384;23;20191;-74
2021/07/13 12:32:43;;;;;;;7.95;6.28;;;26.60;99.90;;;;;;6150706;23;20195;-74
2021/07/13 12:35:15;;;;;;;9.43;6.20;;;26.80;99.90;;;;;;6151958;23;20180;-74
2021/07/13 12:37:44;;;;;;;7.88;5.80;;;26.70;99.90;;;;;;6152177;23;20191;-74
2021/07/13 12:40:13;;;;;;;6.47;5.88;;;26.90;99.90;;;;;;6150910;23;20631;-74
2021/07/13 12:42:42;;;;;;;6.68;6.03;;;26.90;99.90;;;;;;6145496;23;20180;-74
2021/07/13 12:45:17;;;;;;;6.55;5.95;;;27.10;99.90;;;;;;6143857;23;20192;-73
2021/07/13 12:47:46;;;;;;;8.23;6.30;;;27.00;99.90;;;;;;6144689;23;20921;-74
2021/07/13 12:50:23;;;;;;;12.68;5.97;;;27.20;99.90;;;;;;6146332;23;20521;-74
2021/07/13 12:52:59;;;;;;;8.80;6.30;;;27.30;99.90;;;;;;6148351;23;20255;-74